sensor_id;sensor_type;location;lat;lon;timestamp;temperature;humidity
60701;DHT22;46541;49.894;10.886;2024-02-26T00:00:38;4.80;99.90
60701;DHT22;46541;49.894;10.886;2024-02-26T00:03:05;4.80;99.90
60701;DHT22;46541;49.894;10.886;2024-02-26T00:05:32;4.80;99.90
60701;DHT22;46541;49.894;10.886;2024-02-26T00:08:02;4.80;99.90
60701;DHT22;46541;49.894;10.886;2024-02-26T00:10:31;4.80;99.90
60701;DHT22;46541;49.894;10.886;2024-02-26T00:12:58;4.80;99.90
60701;DHT22;46541;49.894;10.886;2024-02-26T00:15:24;4.80;99.90
60701;DHT22;46541;49.894;10.886;2024-02-26T00:17:52;4.70;99.90
60701;DHT22;46541;49.894;10.886;2024-02-26T00:20:19;4.70;99.90
60701;DHT22;46541;49.894;10.886;2024-02-26T00:22:45;4.70;99.90
60701;DHT22;46541;49.894;10.886;2024-02-26T00:25:12;4.70;99.90
60701;DHT22;46541;49.894;10.886;2024-02-26T00:27:39;4.70;99.90
60701;DHT22;46541;49.894;10.886;2024-02-26T00:30:08;4.60;99.90
60701;DHT22;46541;49.894;10.886;2024-02-26T00:32:35;4.70;99.90
60701;DHT22;46541;49.894;10.886;2024-02-26T00:35:02;4.60;99.90
60701;DHT22;46541;49.894;10.886;2024-02-26T00:37:29;4.60;99.90
60701;DHT22;46541;49.894;10.886;2024-02-26T00:39:56;4.50;99.90
60701;DHT22;46541;49.894;10.886;2024-02-26T00:42:22;4.50;99.90
60701;DHT22;46541;49.894;10.886;2024-02-26T00:44:49;4.50;99.90
60701;DHT22;46541;49.894;10.886;2024-02-26T00:47:16;4.50;99.90
60701;DHT22;46541;49.894;10.886;2024-02-26T00:49:43;4.50;99.90
60701;DHT22;46541;49.894;10.886;2024-02-26T00:52:10;4.50;99.90
60701;DHT22;46541;49.894;10.886;2024-02-26T00:54:36;4.50;99.90
60701;DHT22;46541;49.894;10.886;2024-02-26T00:57:03;4.50;99.90
60701;DHT22;46541;49.894;10.886;2024-02-26T00:59:30;4.60;99.90
60701;DHT22;46541;49.894;10.886;2024-02-26T01:01:57;4.50;99.90
60701;DHT22;46541;49.894;10.886;2024-02-26T01:04:25;4.50;99.90
60701;DHT22;46541;49.894;10.886;2024-02-26T01:06:52;4.50;99.90
60701;DHT22;46541;49.894;10.886;2024-02-26T01:09:19;4.50;99.90
60701;DHT22;46541;49.894;10.886;2024-02-26T01:11:46;4.50;99.90
60701;DHT22;46541;49.894;10.886;2024-02-26T01:14:13;4.50;99.90
60701;DHT22;46541;49.894;10.886;2024-02-26T01:16:41;4.50;99.90
60701;DHT22;46541;49.894;10.886;2024-02-26T01:19:08;4.50;99.90
60701;DHT22;46541;49.894;10.886;2024-02-26T01:21:35;4.40;99.90
60701;DHT22;46541;49.894;10.886;2024-02-26T01:24:01;4.40;99.90
60701;DHT22;46541;49.894;10.886;2024-02-26T01:26:28;4.40;99.90
60701;DHT22;46541;49.894;10.886;2024-02-26T01:28:55;4.40;99.90
60701;DHT22;46541;49.894;10.886;2024-02-26T01:31:22;4.40;99.90
60701;DHT22;46541;49.894;10.886;2024-02-26T01:33:49;4.40;99.90
60701;DHT22;46541;49.894;10.886;2024-02-26T01:36:16;4.40;99.90
60701;DHT22;46541;49.894;10.886;2024-02-26T01:38:43;4.50;99.90
60701;DHT22;46541;49.894;10.886;2024-02-26T01:41:10;4.50;99.90
60701;DHT22;46541;49.894;10.886;2024-02-26T01:43:37;4.60;99.90
60701;DHT22;46541;49.894;10.886;2024-02-26T01:46:04;4.60;99.90
60701;DHT22;46541;49.894;10.886;2024-02-26T01:48:31;4.50;99.90
60701;DHT22;46541;49.894;10.886;2024-02-26T01:50:58;4.50;99.90
60701;DHT22;46541;49.894;10.886;2024-02-26T01:53:25;4.60;99.90
60701;DHT22;46541;49.894;10.886;2024-02-26T01:55:52;4.70;99.90
60701;DHT22;46541;49.894;10.886;2024-02-26T01:58:18;4.70;99.90
60701;DHT22;46541;49.894;10.886;2024-02-26T02:00:45;4.70;99.90
60701;DHT22;46541;49.894;10.886;2024-02-26T02:03:12;4.70;99.90
60701;DHT22;46541;49.894;10.886;2024-02-26T02:05:39;4.80;99.90
60701;DHT22;46541;49.894;10.886;2024-02-26T02:08:13;4.80;99.90
60701;DHT22;46541;49.894;10.886;2024-02-26T02:10:43;4.80;99.90
60701;DHT22;46541;49.894;10.886;2024-02-26T02:13:10;4.80;99.90
60701;DHT22;46541;49.894;10.886;2024-02-26T02:15:37;4.80;99.90
60701;DHT22;46541;49.894;10.886;2024-02-26T02:18:04;4.80;99.90
60701;DHT22;46541;49.894;10.886;2024-02-26T02:20:32;4.80;99.90
60701;DHT22;46541;49.894;10.886;2024-02-26T02:23:00;4.70;99.90
60701;DHT22;46541;49.894;10.886;2024-02-26T02:25:27;4.70;99.90
60701;DHT22;46541;49.894;10.886;2024-02-26T02:27:55;4.60;99.90
60701;DHT22;46541;49.894;10.886;2024-02-26T02:30:28;4.60;99.90
60701;DHT22;46541;49.894;10.886;2024-02-26T02:32:57;4.70;99.90
60701;DHT22;46541;49.894;10.886;2024-02-26T02:35:25;4.70;99.90
60701;DHT22;46541;49.894;10.886;2024-02-26T02:37:52;4.70;99.90
60701;DHT22;46541;49.894;10.886;2024-02-26T02:40:19;4.70;99.90
60701;DHT22;46541;49.894;10.886;2024-02-26T02:42:46;4.70;99.90
60701;DHT22;46541;49.894;10.886;2024-02-26T02:45:13;4.60;99.90
60701;DHT22;46541;49.894;10.886;2024-02-26T02:47:40;4.60;99.90
60701;DHT22;46541;49.894;10.886;2024-02-26T02:50:07;4.60;99.90
60701;DHT22;46541;49.894;10.886;2024-02-26T02:52:34;4.60;99.90
60701;DHT22;46541;49.894;10.886;2024-02-26T02:55:01;4.60;99.90
60701;DHT22;46541;49.894;10.886;2024-02-26T02:57:28;4.70;99.90
60701;DHT22;46541;49.894;10.886;2024-02-26T02:59:56;4.70;99.90
60701;DHT22;46541;49.894;10.886;2024-02-26T03:02:22;4.70;99.90
60701;DHT22;46541;49.894;10.886;2024-02-26T03:04:51;4.70;99.90
60701;DHT22;46541;49.894;10.886;2024-02-26T03:07:18;4.70;99.90
60701;DHT22;46541;49.894;10.886;2024-02-26T03:09:45;4.80;99.90
60701;DHT22;46541;49.894;10.886;2024-02-26T03:12:12;4.90;99.90
60701;DHT22;46541;49.894;10.886;2024-02-26T03:14:39;4.90;99.90
60701;DHT22;46541;49.894;10.886;2024-02-26T03:17:06;4.80;99.90
60701;DHT22;46541;49.894;10.886;2024-02-26T03:19:32;4.90;99.90
60701;DHT22;46541;49.894;10.886;2024-02-26T03:21:59;4.80;99.90
60701;DHT22;46541;49.894;10.886;2024-02-26T03:24:26;4.90;99.90
60701;DHT22;46541;49.894;10.886;2024-02-26T03:26:53;4.90;99.90
60701;DHT22;46541;49.894;10.886;2024-02-26T03:29:20;4.90;99.90
60701;DHT22;46541;49.894;10.886;2024-02-26T03:31:46;4.90;99.90
60701;DHT22;46541;49.894;10.886;2024-02-26T03:34:13;4.90;99.90
60701;DHT22;46541;49.894;10.886;2024-02-26T03:36:41;4.90;99.90
60701;DHT22;46541;49.894;10.886;2024-02-26T03:39:08;4.90;99.90
60701;DHT22;46541;49.894;10.886;2024-02-26T03:41:35;4.90;99.90
60701;DHT22;46541;49.894;10.886;2024-02-26T03:44:02;4.90;99.90
60701;DHT22;46541;49.894;10.886;2024-02-26T03:46:30;4.90;99.90
60701;DHT22;46541;49.894;10.886;2024-02-26T03:48:56;4.80;99.90
60701;DHT22;46541;49.894;10.886;2024-02-26T03:51:23;4.80;99.90
60701;DHT22;46541;49.894;10.886;2024-02-26T03:53:50;4.80;99.90
60701;DHT22;46541;49.894;10.886;2024-02-26T03:56:17;4.80;99.90
60701;DHT22;46541;49.894;10.886;2024-02-26T03:58:44;4.80;99.90
60701;DHT22;46541;49.894;10.886;2024-02-26T04:01:11;4.80;99.90
60701;DHT22;46541;49.894;10.886;2024-02-26T04:03:38;4.80;99.90
60701;DHT22;46541;49.894;10.886;2024-02-26T04:06:04;4.80;99.90
60701;DHT22;46541;49.894;10.886;2024-02-26T04:08:34;4.80;99.90
60701;DHT22;46541;49.894;10.886;2024-02-26T04:11:01;4.80;99.90
60701;DHT22;46541;49.894;10.886;2024-02-26T04:13:29;4.80;99.90
60701;DHT22;46541;49.894;10.886;2024-02-26T04:15:56;4.80;99.90
60701;DHT22;46541;49.894;10.886;2024-02-26T04:18:24;4.80;99.90
60701;DHT22;46541;49.894;10.886;2024-02-26T04:20:51;4.80;99.90
60701;DHT22;46541;49.894;10.886;2024-02-26T04:23:18;4.80;99.90
60701;DHT22;46541;49.894;10.886;2024-02-26T04:25:44;4.70;99.90
60701;DHT22;46541;49.894;10.886;2024-02-26T04:28:11;4.70;99.90
60701;DHT22;46541;49.894;10.886;2024-02-26T04:30:38;4.70;99.90
60701;DHT22;46541;49.894;10.886;2024-02-26T04:33:05;4.70;99.90
60701;DHT22;46541;49.894;10.886;2024-02-26T04:35:32;4.70;99.90
60701;DHT22;46541;49.894;10.886;2024-02-26T04:37:59;4.60;99.90
60701;DHT22;46541;49.894;10.886;2024-02-26T04:40:25;4.60;99.90
60701;DHT22;46541;49.894;10.886;2024-02-26T04:42:52;4.60;99.90
60701;DHT22;46541;49.894;10.886;2024-02-26T04:45:19;4.60;99.90
60701;DHT22;46541;49.894;10.886;2024-02-26T04:47:46;4.60;99.90
60701;DHT22;46541;49.894;10.886;2024-02-26T04:50:13;4.60;99.90
60701;DHT22;46541;49.894;10.886;2024-02-26T04:52:41;4.60;99.90
60701;DHT22;46541;49.894;10.886;2024-02-26T04:55:08;4.50;99.90
60701;DHT22;46541;49.894;10.886;2024-02-26T04:57:34;4.60;99.90
60701;DHT22;46541;49.894;10.886;2024-02-26T05:00:01;4.60;99.90
60701;DHT22;46541;49.894;10.886;2024-02-26T05:02:28;4.60;99.90
60701;DHT22;46541;49.894;10.886;2024-02-26T05:04:56;4.70;99.90
60701;DHT22;46541;49.894;10.886;2024-02-26T05:07:23;4.70;99.90
60701;DHT22;46541;49.894;10.886;2024-02-26T05:09:50;4.70;99.90
60701;DHT22;46541;49.894;10.886;2024-02-26T05:12:17;4.70;99.90
60701;DHT22;46541;49.894;10.886;2024-02-26T05:14:43;4.70;99.90
60701;DHT22;46541;49.894;10.886;2024-02-26T05:17:10;4.70;99.90
60701;DHT22;46541;49.894;10.886;2024-02-26T05:19:37;4.70;99.90
60701;DHT22;46541;49.894;10.886;2024-02-26T05:22:04;4.70;99.90
60701;DHT22;46541;49.894;10.886;2024-02-26T05:24:31;4.80;99.90
60701;DHT22;46541;49.894;10.886;2024-02-26T05:26:57;4.80;99.90
60701;DHT22;46541;49.894;10.886;2024-02-26T05:29:24;4.80;99.90
60701;DHT22;46541;49.894;10.886;2024-02-26T05:31:51;4.90;99.90
60701;DHT22;46541;49.894;10.886;2024-02-26T05:34:20;4.90;99.90
60701;DHT22;46541;49.894;10.886;2024-02-26T05:36:48;4.90;99.90
60701;DHT22;46541;49.894;10.886;2024-02-26T05:39:15;5.00;99.90
60701;DHT22;46541;49.894;10.886;2024-02-26T05:41:46;5.00;99.90
60701;DHT22;46541;49.894;10.886;2024-02-26T05:44:13;5.00;99.90
60701;DHT22;46541;49.894;10.886;2024-02-26T05:46:41;5.00;99.90
60701;DHT22;46541;49.894;10.886;2024-02-26T05:49:08;5.00;99.90
60701;DHT22;46541;49.894;10.886;2024-02-26T05:51:35;5.00;99.90
60701;DHT22;46541;49.894;10.886;2024-02-26T05:54:02;5.00;99.90
60701;DHT22;46541;49.894;10.886;2024-02-26T05:56:29;5.00;99.90
60701;DHT22;46541;49.894;10.886;2024-02-26T05:58:55;5.00;99.90
60701;DHT22;46541;49.894;10.886;2024-02-26T06:01:22;5.00;99.90
60701;DHT22;46541;49.894;10.886;2024-02-26T06:03:49;5.00;99.90
60701;DHT22;46541;49.894;10.886;2024-02-26T06:06:16;5.00;99.90
60701;DHT22;46541;49.894;10.886;2024-02-26T06:08:44;5.10;99.90
60701;DHT22;46541;49.894;10.886;2024-02-26T06:11:11;5.10;99.90
60701;DHT22;46541;49.894;10.886;2024-02-26T06:13:38;5.10;99.90
60701;DHT22;46541;49.894;10.886;2024-02-26T06:16:04;5.10;99.90
60701;DHT22;46541;49.894;10.886;2024-02-26T06:18:31;5.10;99.90
60701;DHT22;46541;49.894;10.886;2024-02-26T06:20:58;5.10;99.90
60701;DHT22;46541;49.894;10.886;2024-02-26T06:23:26;5.10;99.90
60701;DHT22;46541;49.894;10.886;2024-02-26T06:25:53;5.20;99.90
60701;DHT22;46541;49.894;10.886;2024-02-26T06:28:19;5.20;99.90
60701;DHT22;46541;49.894;10.886;2024-02-26T06:30:46;5.20;99.90
60701;DHT22;46541;49.894;10.886;2024-02-26T06:33:13;5.20;99.90
60701;DHT22;46541;49.894;10.886;2024-02-26T06:35:41;5.30;99.90
60701;DHT22;46541;49.894;10.886;2024-02-26T06:38:08;5.30;99.90
60701;DHT22;46541;49.894;10.886;2024-02-26T06:40:36;5.30;99.90
60701;DHT22;46541;49.894;10.886;2024-02-26T06:43:05;5.30;99.90
60701;DHT22;46541;49.894;10.886;2024-02-26T06:45:32;5.30;99.90
60701;DHT22;46541;49.894;10.886;2024-02-26T06:47:59;5.30;99.90
60701;DHT22;46541;49.894;10.886;2024-02-26T06:50:26;5.30;99.90
60701;DHT22;46541;49.894;10.886;2024-02-26T06:52:53;5.30;99.90
60701;DHT22;46541;49.894;10.886;2024-02-26T06:55:19;5.40;99.90
60701;DHT22;46541;49.894;10.886;2024-02-26T06:57:46;5.50;99.90
60701;DHT22;46541;49.894;10.886;2024-02-26T07:00:14;5.50;99.90
60701;DHT22;46541;49.894;10.886;2024-02-26T07:02:43;5.60;99.90
60701;DHT22;46541;49.894;10.886;2024-02-26T07:05:10;5.60;99.90
60701;DHT22;46541;49.894;10.886;2024-02-26T07:07:38;5.60;99.90
60701;DHT22;46541;49.894;10.886;2024-02-26T07:10:05;5.70;99.90
60701;DHT22;46541;49.894;10.886;2024-02-26T07:12:33;5.70;99.90
60701;DHT22;46541;49.894;10.886;2024-02-26T07:15:00;5.80;99.90
60701;DHT22;46541;49.894;10.886;2024-02-26T07:17:27;5.80;99.90
60701;DHT22;46541;49.894;10.886;2024-02-26T07:19:54;5.80;99.90
60701;DHT22;46541;49.894;10.886;2024-02-26T07:22:21;5.80;99.90
60701;DHT22;46541;49.894;10.886;2024-02-26T07:24:48;5.80;99.90
60701;DHT22;46541;49.894;10.886;2024-02-26T07:27:14;5.90;99.90
60701;DHT22;46541;49.894;10.886;2024-02-26T07:29:44;5.80;99.90
60701;DHT22;46541;49.894;10.886;2024-02-26T07:32:11;5.90;99.90
60701;DHT22;46541;49.894;10.886;2024-02-26T07:34:37;5.90;99.90
60701;DHT22;46541;49.894;10.886;2024-02-26T07:37:08;6.00;99.90
60701;DHT22;46541;49.894;10.886;2024-02-26T07:39:35;6.00;99.90
60701;DHT22;46541;49.894;10.886;2024-02-26T07:42:03;6.00;99.90
60701;DHT22;46541;49.894;10.886;2024-02-26T07:44:31;6.00;99.90
60701;DHT22;46541;49.894;10.886;2024-02-26T07:47:01;6.00;99.90
60701;DHT22;46541;49.894;10.886;2024-02-26T07:49:28;6.10;99.90
60701;DHT22;46541;49.894;10.886;2024-02-26T07:51:58;6.20;99.90
60701;DHT22;46541;49.894;10.886;2024-02-26T07:54:25;6.20;99.90
60701;DHT22;46541;49.894;10.886;2024-02-26T07:56:52;6.30;99.90
60701;DHT22;46541;49.894;10.886;2024-02-26T07:59:19;6.40;99.90
60701;DHT22;46541;49.894;10.886;2024-02-26T08:01:50;6.40;99.90
60701;DHT22;46541;49.894;10.886;2024-02-26T08:04:23;6.50;99.90
60701;DHT22;46541;49.894;10.886;2024-02-26T08:06:49;6.60;99.90
60701;DHT22;46541;49.894;10.886;2024-02-26T08:09:16;6.70;99.90
60701;DHT22;46541;49.894;10.886;2024-02-26T08:11:43;6.80;99.90
60701;DHT22;46541;49.894;10.886;2024-02-26T08:14:10;6.90;99.90
60701;DHT22;46541;49.894;10.886;2024-02-26T08:16:37;6.90;99.90
60701;DHT22;46541;49.894;10.886;2024-02-26T08:19:03;7.00;99.90
60701;DHT22;46541;49.894;10.886;2024-02-26T08:21:30;7.00;99.90
60701;DHT22;46541;49.894;10.886;2024-02-26T08:23:57;7.10;99.90
60701;DHT22;46541;49.894;10.886;2024-02-26T08:26:24;7.10;99.90
60701;DHT22;46541;49.894;10.886;2024-02-26T08:28:51;7.20;99.90
60701;DHT22;46541;49.894;10.886;2024-02-26T08:31:18;7.10;99.90
60701;DHT22;46541;49.894;10.886;2024-02-26T08:33:44;7.20;99.90
60701;DHT22;46541;49.894;10.886;2024-02-26T08:36:11;7.30;99.90
60701;DHT22;46541;49.894;10.886;2024-02-26T08:38:38;7.30;99.90
60701;DHT22;46541;49.894;10.886;2024-02-26T08:41:05;7.40;99.90
60701;DHT22;46541;49.894;10.886;2024-02-26T08:43:32;7.30;99.90
60701;DHT22;46541;49.894;10.886;2024-02-26T08:45:58;7.40;99.90
60701;DHT22;46541;49.894;10.886;2024-02-26T08:48:25;7.30;99.90
60701;DHT22;46541;49.894;10.886;2024-02-26T08:50:52;7.40;99.90
60701;DHT22;46541;49.894;10.886;2024-02-26T08:53:20;7.40;99.90
60701;DHT22;46541;49.894;10.886;2024-02-26T08:55:57;7.50;99.90
60701;DHT22;46541;49.894;10.886;2024-02-26T08:58:24;7.60;99.90
60701;DHT22;46541;49.894;10.886;2024-02-26T09:00:50;7.70;99.90
60701;DHT22;46541;49.894;10.886;2024-02-26T09:03:17;7.80;99.90
60701;DHT22;46541;49.894;10.886;2024-02-26T09:05:44;7.90;99.90
60701;DHT22;46541;49.894;10.886;2024-02-26T09:08:11;7.90;99.90
60701;DHT22;46541;49.894;10.886;2024-02-26T09:10:38;8.00;99.90
60701;DHT22;46541;49.894;10.886;2024-02-26T09:13:06;8.10;99.90
60701;DHT22;46541;49.894;10.886;2024-02-26T09:15:32;8.20;99.90
60701;DHT22;46541;49.894;10.886;2024-02-26T09:17:59;8.30;99.90
60701;DHT22;46541;49.894;10.886;2024-02-26T09:20:26;8.30;99.90
60701;DHT22;46541;49.894;10.886;2024-02-26T09:22:53;8.40;99.90
60701;DHT22;46541;49.894;10.886;2024-02-26T09:25:20;8.50;99.90
60701;DHT22;46541;49.894;10.886;2024-02-26T09:27:47;8.60;99.90
60701;DHT22;46541;49.894;10.886;2024-02-26T09:30:14;8.70;99.90
60701;DHT22;46541;49.894;10.886;2024-02-26T09:32:41;8.90;99.90
60701;DHT22;46541;49.894;10.886;2024-02-26T09:35:08;9.00;99.90
60701;DHT22;46541;49.894;10.886;2024-02-26T09:37:35;9.20;99.90
60701;DHT22;46541;49.894;10.886;2024-02-26T09:40:04;9.40;99.90
60701;DHT22;46541;49.894;10.886;2024-02-26T09:42:34;9.50;99.90
60701;DHT22;46541;49.894;10.886;2024-02-26T09:45:05;9.60;99.90
60701;DHT22;46541;49.894;10.886;2024-02-26T09:47:36;9.60;99.90
60701;DHT22;46541;49.894;10.886;2024-02-26T09:50:06;9.70;99.90
60701;DHT22;46541;49.894;10.886;2024-02-26T09:52:37;9.80;99.90
60701;DHT22;46541;49.894;10.886;2024-02-26T09:55:06;9.90;99.90
60701;DHT22;46541;49.894;10.886;2024-02-26T09:57:36;9.90;99.90
60701;DHT22;46541;49.894;10.886;2024-02-26T10:00:04;10.00;99.90
60701;DHT22;46541;49.894;10.886;2024-02-26T10:02:33;10.00;99.90
60701;DHT22;46541;49.894;10.886;2024-02-26T10:05:02;10.00;99.90
60701;DHT22;46541;49.894;10.886;2024-02-26T10:07:32;10.00;99.90
60701;DHT22;46541;49.894;10.886;2024-02-26T10:09:59;10.10;99.90
60701;DHT22;46541;49.894;10.886;2024-02-26T10:12:26;10.10;99.90
60701;DHT22;46541;49.894;10.886;2024-02-26T10:14:55;10.10;99.90
60701;DHT22;46541;49.894;10.886;2024-02-26T10:17:22;10.20;99.90
60701;DHT22;46541;49.894;10.886;2024-02-26T10:19:49;10.40;99.90
60701;DHT22;46541;49.894;10.886;2024-02-26T10:22:18;10.60;99.90
60701;DHT22;46541;49.894;10.886;2024-02-26T10:24:47;10.80;99.90
60701;DHT22;46541;49.894;10.886;2024-02-26T10:27:15;10.90;99.90
60701;DHT22;46541;49.894;10.886;2024-02-26T10:29:41;10.90;99.90
60701;DHT22;46541;49.894;10.886;2024-02-26T10:32:09;10.90;99.90
60701;DHT22;46541;49.894;10.886;2024-02-26T10:34:37;10.90;99.90
60701;DHT22;46541;49.894;10.886;2024-02-26T10:37:08;10.90;99.90
60701;DHT22;46541;49.894;10.886;2024-02-26T10:39:36;11.10;99.90
60701;DHT22;46541;49.894;10.886;2024-02-26T10:42:04;11.00;99.90
60701;DHT22;46541;49.894;10.886;2024-02-26T10:44:36;11.10;99.90
60701;DHT22;46541;49.894;10.886;2024-02-26T10:47:03;11.10;99.90
60701;DHT22;46541;49.894;10.886;2024-02-26T10:49:30;11.10;99.90
60701;DHT22;46541;49.894;10.886;2024-02-26T10:51:57;11.20;99.90
60701;DHT22;46541;49.894;10.886;2024-02-26T10:54:26;11.10;99.90
60701;DHT22;46541;49.894;10.886;2024-02-26T10:56:56;11.00;99.90
60701;DHT22;46541;49.894;10.886;2024-02-26T10:59:24;11.10;99.90
60701;DHT22;46541;49.894;10.886;2024-02-26T11:01:51;11.30;99.90
60701;DHT22;46541;49.894;10.886;2024-02-26T11:04:20;11.40;99.90
60701;DHT22;46541;49.894;10.886;2024-02-26T11:06:49;11.50;99.90
60701;DHT22;46541;49.894;10.886;2024-02-26T11:09:17;11.40;99.90
60701;DHT22;46541;49.894;10.886;2024-02-26T11:11:46;11.50;99.90
60701;DHT22;46541;49.894;10.886;2024-02-26T11:14:14;11.40;99.90
60701;DHT22;46541;49.894;10.886;2024-02-26T11:16:41;11.50;99.90
60701;DHT22;46541;49.894;10.886;2024-02-26T11:19:10;11.60;99.90
60701;DHT22;46541;49.894;10.886;2024-02-26T11:21:39;11.60;99.90
60701;DHT22;46541;49.894;10.886;2024-02-26T11:24:12;11.60;99.90
60701;DHT22;46541;49.894;10.886;2024-02-26T11:26:50;11.50;99.90
60701;DHT22;46541;49.894;10.886;2024-02-26T11:29:22;11.60;99.90
60701;DHT22;46541;49.894;10.886;2024-02-26T11:31:50;11.60;99.90
60701;DHT22;46541;49.894;10.886;2024-02-26T11:34:17;11.70;99.90
60701;DHT22;46541;49.894;10.886;2024-02-26T11:36:46;12.00;99.90
60701;DHT22;46541;49.894;10.886;2024-02-26T11:39:14;12.20;99.90
60701;DHT22;46541;49.894;10.886;2024-02-26T11:41:43;12.30;99.90
60701;DHT22;46541;49.894;10.886;2024-02-26T11:44:10;12.40;99.90
60701;DHT22;46541;49.894;10.886;2024-02-26T11:46:41;12.30;99.90
60701;DHT22;46541;49.894;10.886;2024-02-26T11:51:55;12.30;99.90
60701;DHT22;46541;49.894;10.886;2024-02-26T11:54:47;12.30;99.90
60701;DHT22;46541;49.894;10.886;2024-02-26T11:59:48;12.70;99.90
60701;DHT22;46541;49.894;10.886;2024-02-26T12:02:55;12.80;98.90
60701;DHT22;46541;49.894;10.886;2024-02-26T12:05:31;12.90;99.40
60701;DHT22;46541;49.894;10.886;2024-02-26T12:08:07;13.00;99.50
60701;DHT22;46541;49.894;10.886;2024-02-26T12:10:39;13.10;99.40
60701;DHT22;46541;49.894;10.886;2024-02-26T12:13:14;12.90;97.80
60701;DHT22;46541;49.894;10.886;2024-02-26T12:16:06;12.90;98.60
60701;DHT22;46541;49.894;10.886;2024-02-26T12:18:32;13.10;98.60
60701;DHT22;46541;49.894;10.886;2024-02-26T12:21:04;13.30;98.30
60701;DHT22;46541;49.894;10.886;2024-02-26T12:23:31;13.40;97.90
60701;DHT22;46541;49.894;10.886;2024-02-26T12:25:59;13.40;97.50
60701;DHT22;46541;49.894;10.886;2024-02-26T12:28:29;13.50;97.80
60701;DHT22;46541;49.894;10.886;2024-02-26T12:30:56;13.60;98.00
60701;DHT22;46541;49.894;10.886;2024-02-26T12:33:26;13.60;97.50
60701;DHT22;46541;49.894;10.886;2024-02-26T12:35:53;13.60;96.90
60701;DHT22;46541;49.894;10.886;2024-02-26T12:38:20;13.50;97.10
60701;DHT22;46541;49.894;10.886;2024-02-26T12:40:47;13.50;98.00
60701;DHT22;46541;49.894;10.886;2024-02-26T12:43:16;13.50;97.20
60701;DHT22;46541;49.894;10.886;2024-02-26T12:45:43;13.50;96.30
60701;DHT22;46541;49.894;10.886;2024-02-26T12:48:14;13.40;97.20
60701;DHT22;46541;49.894;10.886;2024-02-26T12:50:45;13.40;97.00
60701;DHT22;46541;49.894;10.886;2024-02-26T12:53:14;13.40;96.10
60701;DHT22;46541;49.894;10.886;2024-02-26T12:55:41;13.50;97.00
60701;DHT22;46541;49.894;10.886;2024-02-26T12:58:08;13.30;96.30
60701;DHT22;46541;49.894;10.886;2024-02-26T13:00:36;13.30;96.40
60701;DHT22;46541;49.894;10.886;2024-02-26T13:03:03;13.30;96.40
60701;DHT22;46541;49.894;10.886;2024-02-26T13:05:31;13.40;96.60
60701;DHT22;46541;49.894;10.886;2024-02-26T13:07:58;13.30;95.30
60701;DHT22;46541;49.894;10.886;2024-02-26T13:10:25;13.30;96.10
60701;DHT22;46541;49.894;10.886;2024-02-26T13:12:52;13.20;95.70
60701;DHT22;46541;49.894;10.886;2024-02-26T13:15:20;13.10;96.30
60701;DHT22;46541;49.894;10.886;2024-02-26T13:17:49;13.10;96.40
60701;DHT22;46541;49.894;10.886;2024-02-26T13:20:29;13.10;96.90
60701;DHT22;46541;49.894;10.886;2024-02-26T13:23:04;13.10;96.70
60701;DHT22;46541;49.894;10.886;2024-02-26T13:25:34;13.20;96.40
60701;DHT22;46541;49.894;10.886;2024-02-26T13:30:36;13.20;96.20
60701;DHT22;46541;49.894;10.886;2024-02-26T13:33:10;13.30;96.70
60701;DHT22;46541;49.894;10.886;2024-02-26T13:35:38;13.30;96.30
60701;DHT22;46541;49.894;10.886;2024-02-26T13:38:06;13.40;96.00
60701;DHT22;46541;49.894;10.886;2024-02-26T13:40:33;13.40;95.10
60701;DHT22;46541;49.894;10.886;2024-02-26T13:43:00;13.30;94.10
60701;DHT22;46541;49.894;10.886;2024-02-26T13:45:27;13.20;93.90
60701;DHT22;46541;49.894;10.886;2024-02-26T13:48:08;13.00;94.00
60701;DHT22;46541;49.894;10.886;2024-02-26T13:50:38;13.00;93.60
60701;DHT22;46541;49.894;10.886;2024-02-26T13:53:05;12.80;93.60
60701;DHT22;46541;49.894;10.886;2024-02-26T13:55:32;12.80;94.10
60701;DHT22;46541;49.894;10.886;2024-02-26T13:58:00;12.90;94.60
60701;DHT22;46541;49.894;10.886;2024-02-26T14:00:30;12.90;94.30
60701;DHT22;46541;49.894;10.886;2024-02-26T14:03:01;12.90;94.30
60701;DHT22;46541;49.894;10.886;2024-02-26T14:05:28;12.90;94.40
60701;DHT22;46541;49.894;10.886;2024-02-26T14:07:56;12.80;94.50
60701;DHT22;46541;49.894;10.886;2024-02-26T14:10:23;12.80;93.90
60701;DHT22;46541;49.894;10.886;2024-02-26T14:12:50;12.80;93.40
60701;DHT22;46541;49.894;10.886;2024-02-26T14:15:17;12.80;93.40
60701;DHT22;46541;49.894;10.886;2024-02-26T14:17:44;12.80;92.60
60701;DHT22;46541;49.894;10.886;2024-02-26T14:20:12;12.80;92.90
60701;DHT22;46541;49.894;10.886;2024-02-26T14:22:39;12.80;93.10
60701;DHT22;46541;49.894;10.886;2024-02-26T14:25:06;12.80;93.40
60701;DHT22;46541;49.894;10.886;2024-02-26T14:27:35;12.80;93.00
60701;DHT22;46541;49.894;10.886;2024-02-26T14:30:02;12.80;93.90
60701;DHT22;46541;49.894;10.886;2024-02-26T14:32:29;12.80;93.80
60701;DHT22;46541;49.894;10.886;2024-02-26T14:35:09;12.70;92.60
60701;DHT22;46541;49.894;10.886;2024-02-26T14:37:43;12.70;93.00
60701;DHT22;46541;49.894;10.886;2024-02-26T14:40:14;12.60;92.70
60701;DHT22;46541;49.894;10.886;2024-02-26T14:42:42;12.60;93.20
60701;DHT22;46541;49.894;10.886;2024-02-26T14:45:09;12.70;93.60
60701;DHT22;46541;49.894;10.886;2024-02-26T14:47:36;12.70;93.50
60701;DHT22;46541;49.894;10.886;2024-02-26T14:50:04;12.60;93.60
60701;DHT22;46541;49.894;10.886;2024-02-26T14:52:31;12.60;94.00
60701;DHT22;46541;49.894;10.886;2024-02-26T14:54:58;12.60;94.00
60701;DHT22;46541;49.894;10.886;2024-02-26T14:57:25;12.60;93.90
60701;DHT22;46541;49.894;10.886;2024-02-26T14:59:52;12.50;94.00
60701;DHT22;46541;49.894;10.886;2024-02-26T15:02:19;12.50;94.30
60701;DHT22;46541;49.894;10.886;2024-02-26T15:04:45;12.40;94.20
60701;DHT22;46541;49.894;10.886;2024-02-26T15:07:13;12.40;94.20
60701;DHT22;46541;49.894;10.886;2024-02-26T15:09:42;12.30;94.40
60701;DHT22;46541;49.894;10.886;2024-02-26T15:12:09;12.20;95.10
60701;DHT22;46541;49.894;10.886;2024-02-26T15:14:37;12.20;95.50
60701;DHT22;46541;49.894;10.886;2024-02-26T15:17:04;12.20;95.80
60701;DHT22;46541;49.894;10.886;2024-02-26T15:19:31;12.10;95.80
60701;DHT22;46541;49.894;10.886;2024-02-26T15:21:58;12.10;95.90
60701;DHT22;46541;49.894;10.886;2024-02-26T15:24:25;12.00;95.40
60701;DHT22;46541;49.894;10.886;2024-02-26T15:26:52;12.00;95.10
60701;DHT22;46541;49.894;10.886;2024-02-26T15:29:18;11.90;95.10
60701;DHT22;46541;49.894;10.886;2024-02-26T15:31:45;11.90;94.80
60701;DHT22;46541;49.894;10.886;2024-02-26T15:34:12;11.80;94.70
60701;DHT22;46541;49.894;10.886;2024-02-26T15:36:40;11.80;95.00